Cemtex Fortune — 9V3578 — position and weather

sailwx.info

Track history (hours):
 
Tides and Currents Weather Stations Pressure Air Temp Water Temp Dewpoint Dewpoint Depression Visibility Wind Speed Wind Dir Waves Ship Positions

Cemtex Fortune

Last reported at 2018-Feb-14 23:57 UTC. Time now 2018-Feb-22 20:54 UTC.
Position N 21°34' E 120°17'.

Length 228 m; draft 9.1 m.

Type: Cargo ship. MMSI: 563295000.

Date/timePositionNaut miles runAvg speedWind from/ knotsBaromVisibWave heightAir tempDewpointWater temp
2018-Feb-14 23:57N 21°34' E 120°17'611.2
2018-Feb-14 23:26N 21°39' E 120°13'511.2
2018-Feb-14 22:57N 21°44' E 120°10'611.0
2018-Feb-14 22:27N 21°49' E 120°07'611.1
2018-Feb-14 21:56N 21°54' E 120°04'711.0
2018-Feb-14 21:21N 21°59' E 120°00'410.7
2018-Feb-14 20:59N 22°02' E 119°58'510.6
2018-Feb-14 20:30N 22°07' E 119°55'510.3
2018-Feb-14 20:00N 22°11' E 119°53'510.0
2018-Feb-14 19:30N 22°16' E 119°52'610.9
2018-Feb-14 19:00N 22°22' E 119°52'611.8
2018-Feb-14 18:30N 22°28' E 119°52'611.3
2018-Feb-14 18:00N 22°33' E 119°52'611.1
2018-Feb-14 17:30N 22°39' E 119°52'611.4
2018-Feb-14 17:01N 22°44' E 119°52'611.6
2018-Feb-14 16:30N 22°50' E 119°52'510.7
2018-Feb-14 16:00N 22°56' E 119°52'710.1
2018-Feb-14 15:19N 23°03' E 119°52'13 9.6
2018-Feb-14 13:59N 23°15' E 119°52'13 8.4
2018-Feb-14 12:25N 23°29' E 119°52'5 8.1
2018-Feb-14 11:47N 23°33' E 119°55'3 8.3
2018-Feb-14 11:26N 23°36' E 119°55'4 8.7
2018-Feb-14 11:00N 23°40' E 119°56'2310.0
2018-Feb-14 08:44N 24°02' E 120°04'311.3
2018-Feb-14 08:26N 24°05' E 120°05'510.9
2018-Feb-14 08:00N 24°08' E 120°08'611.1
2018-Feb-14 07:30N 24°12' E 120°13'510.9
2018-Feb-14 07:00N 24°14' E 120°18'510.9
2018-Feb-14 06:30N 24°17' E 120°23'5 9.7
2018-Feb-14 06:00N 24°18' E 120°29'3 5.9
2018-Feb-14 05:30N 24°15' E 120°30'2 2.9
2018-Feb-14 04:55N 24°14' E 120°29'0 0.0
2018-Feb-14 04:28N 24°14' E 120°29'0 0.0
2018-Feb-14 03:58N 24°14' E 120°29'0 0.0
2018-Feb-14 03:28N 24°14' E 120°29'0 0.0
2018-Feb-14 02:58N 24°14' E 120°29'0 0.0
2018-Feb-14 02:28N 24°14' E 120°29'0 0.1
2018-Feb-14 01:58N 24°14' E 120°29'0 0.0
2018-Feb-14 01:28N 24°14' E 120°29'  
2018-Feb-09 13:01N 22°45' E 119°55'  
Track history (hours):
 
Tides and Currents Weather Stations Pressure Air Temp Water Temp Dewpoint Dewpoint Depression Visibility Wind Speed Wind Dir Waves Ship Positions

Cemtex Fortune

Last reported at 2018-Feb-14 23:57 UTC. Time now 2018-Feb-22 20:54 UTC.
Position N 21°34' E 120°17'.

Length 228 m; draft 9.1 m.

Type: Cargo ship. MMSI: 563295000.

Date/timePositionNaut miles runAvg speedWind from/ knotsBaromVisibWave heightAir tempDewpointWater temp
2018-Feb-14 23:57N 21°34' E 120°17'611.2
2018-Feb-14 23:26N 21°39' E 120°13'511.2
2018-Feb-14 22:57N 21°44' E 120°10'611.0
2018-Feb-14 22:27N 21°49' E 120°07'611.1
2018-Feb-14 21:56N 21°54' E 120°04'711.0
2018-Feb-14 21:21N 21°59' E 120°00'410.7
2018-Feb-14 20:59N 22°02' E 119°58'510.6
2018-Feb-14 20:30N 22°07' E 119°55'510.3
2018-Feb-14 20:00N 22°11' E 119°53'510.0
2018-Feb-14 19:30N 22°16' E 119°52'610.9
2018-Feb-14 19:00N 22°22' E 119°52'611.8
2018-Feb-14 18:30N 22°28' E 119°52'611.3
2018-Feb-14 18:00N 22°33' E 119°52'611.1
2018-Feb-14 17:30N 22°39' E 119°52'611.4
2018-Feb-14 17:01N 22°44' E 119°52'611.6
2018-Feb-14 16:30N 22°50' E 119°52'510.7
2018-Feb-14 16:00N 22°56' E 119°52'710.1
2018-Feb-14 15:19N 23°03' E 119°52'13 9.6
2018-Feb-14 13:59N 23°15' E 119°52'13 8.4
2018-Feb-14 12:25N 23°29' E 119°52'5 8.1
2018-Feb-14 11:47N 23°33' E 119°55'3 8.3
2018-Feb-14 11:26N 23°36' E 119°55'4 8.7
2018-Feb-14 11:00N 23°40' E 119°56'2310.0
2018-Feb-14 08:44N 24°02' E 120°04'311.3
2018-Feb-14 08:26N 24°05' E 120°05'510.9
2018-Feb-14 08:00N 24°08' E 120°08'611.1
2018-Feb-14 07:30N 24°12' E 120°13'510.9
2018-Feb-14 07:00N 24°14' E 120°18'510.9
2018-Feb-14 06:30N 24°17' E 120°23'5 9.7
2018-Feb-14 06:00N 24°18' E 120°29'3 5.9
2018-Feb-14 05:30N 24°15' E 120°30'2 2.9
2018-Feb-14 04:55N 24°14' E 120°29'0 0.0
2018-Feb-14 04:28N 24°14' E 120°29'0 0.0
2018-Feb-14 03:58N 24°14' E 120°29'0 0.0
2018-Feb-14 03:28N 24°14' E 120°29'0 0.0
2018-Feb-14 02:58N 24°14' E 120°29'0 0.0
2018-Feb-14 02:28N 24°14' E 120°29'0 0.1
2018-Feb-14 01:58N 24°14' E 120°29'0 0.0
2018-Feb-14 01:28N 24°14' E 120°29'  
2018-Feb-09 13:01N 22°45' E 119°55'  

Dump ship's entire track history